Hays Regional Airport
KHYS : now visible

Airfield :











YOU CAN JOIN US ON...

 
LOGIN :

Register | Disclaimer

   EN    FR    IT 

 









Legend :    VFR   Marginal VFR   IFR   Intensive IFR   Very Intensive IFR
Visi :
Ceiling :
>= 8 km
>= 3000ft
5 to 8 km
1000 to 3000 ft
1500m to 5 km
500 to 1000 ft
800 to 1500m
200 to 500 ft
< 800m
< 200 ft
Symbols :   Thunderstorms  Fog  Heavy snow  Heavy precipitations  Wind > 20 kt






- Airport Elevation : 1999 ft


KHYS - Hays Regional

CURRENT METAR :
  • 202056Z AUTO 35015KT 10SM CLR 31/19 A2970 RMK AO2 SLP037 T03060189 53013

EXPIRED METARs :
  • 201956Z AUTO 33012G22KT 10SM CLR 31/19 A2968 RMK AO2 SLP030 T03110189
  • 201856Z AUTO 30013G18KT 10SM CLR 31/18 A2966 RMK AO2 SLP026 T03110183

TAF KHYS
Valid from the 20 at 18:00 until the 21 at 18:00 UTC


201734Z 2018/2118 31009KT P6SM SKC
FM202000 34011KT P6SM SKC
FM202300 01015KT P6SM SKC
FM210700 03011KT 6SM BR VCTS BKN050CB
FM210900 01010KT 6SM -SHRA BR VCTS BKN020CB
FM211200 01008KT P6SM OVC035
KZKC FIR / North America



MET'MAP, your aeronautical weather chart ! - Copyright ORBIFLY December 2007 - Disclaimer

ORBIFLY MET'MAP TEAM :

Programming & Development : Alexandra Zaïnal
Concept & original design : Baudouin d'Aumeries
Assistance for programming : Marc-Olivier Méhu
Technical & hardware support : Manuel Goepfert

Contact : metmap@orbifly.com




SOURCES & CREDITS :

   NOAA       Earth
Advisory